sensor_id;sensor_type;location;lat;lon;timestamp;P1;durP1;ratioP1;P2;durP2;ratioP2
27618;SDS011;15039;50.830;4.730;2023-06-01T00:02:14;7.38;;;4.95;;
27618;SDS011;15039;50.830;4.730;2023-06-01T00:04:39;7.10;;;4.68;;
27618;SDS011;15039;50.830;4.730;2023-06-01T00:07:09;6.88;;;4.53;;
27618;SDS011;15039;50.830;4.730;2023-06-01T00:09:35;11.00;;;4.78;;
27618;SDS011;15039;50.830;4.730;2023-06-01T00:12:01;8.60;;;4.35;;
27618;SDS011;15039;50.830;4.730;2023-06-01T00:14:27;9.02;;;4.90;;
27618;SDS011;15039;50.830;4.730;2023-06-01T00:16:53;10.70;;;4.60;;
27618;SDS011;15039;50.830;4.730;2023-06-01T00:19:20;8.48;;;4.72;;
27618;SDS011;15039;50.830;4.730;2023-06-01T00:21:46;6.90;;;4.80;;
27618;SDS011;15039;50.830;4.730;2023-06-01T00:24:12;7.80;;;4.40;;
27618;SDS011;15039;50.830;4.730;2023-06-01T00:26:37;10.70;;;5.25;;
27618;SDS011;15039;50.830;4.730;2023-06-01T00:29:03;7.63;;;5.18;;
27618;SDS011;15039;50.830;4.730;2023-06-01T00:31:28;8.70;;;4.50;;
27618;SDS011;15039;50.830;4.730;2023-06-01T00:33:54;7.18;;;4.60;;
27618;SDS011;15039;50.830;4.730;2023-06-01T00:36:20;9.38;;;4.68;;
27618;SDS011;15039;50.830;4.730;2023-06-01T00:38:46;5.93;;;4.25;;
27618;SDS011;15039;50.830;4.730;2023-06-01T00:41:11;6.93;;;4.78;;
27618;SDS011;15039;50.830;4.730;2023-06-01T00:43:37;7.40;;;4.57;;
27618;SDS011;15039;50.830;4.730;2023-06-01T00:46:03;11.35;;;4.88;;
27618;SDS011;15039;50.830;4.730;2023-06-01T00:48:29;9.55;;;4.53;;
27618;SDS011;15039;50.830;4.730;2023-06-01T00:50:55;7.28;;;4.50;;
27618;SDS011;15039;50.830;4.730;2023-06-01T00:53:23;10.60;;;4.85;;
27618;SDS011;15039;50.830;4.730;2023-06-01T00:55:50;9.30;;;4.60;;
27618;SDS011;15039;50.830;4.730;2023-06-01T00:58:15;10.32;;;5.63;;
27618;SDS011;15039;50.830;4.730;2023-06-01T01:00:41;8.95;;;5.22;;
27618;SDS011;15039;50.830;4.730;2023-06-01T01:03:07;9.77;;;5.15;;
27618;SDS011;15039;50.830;4.730;2023-06-01T01:05:34;6.60;;;4.45;;
27618;SDS011;15039;50.830;4.730;2023-06-01T01:08:18;8.57;;;5.00;;
27618;SDS011;15039;50.830;4.730;2023-06-01T01:11:05;7.15;;;5.00;;
27618;SDS011;15039;50.830;4.730;2023-06-01T01:13:52;8.10;;;4.78;;
27618;SDS011;15039;50.830;4.730;2023-06-01T01:16:37;8.07;;;4.90;;
27618;SDS011;15039;50.830;4.730;2023-06-01T01:19:34;9.75;;;4.78;;
27618;SDS011;15039;50.830;4.730;2023-06-01T01:29:41;8.35;;;4.80;;
27618;SDS011;15039;50.830;4.730;2023-06-01T01:32:08;7.97;;;4.75;;
27618;SDS011;15039;50.830;4.730;2023-06-01T01:34:36;10.77;;;5.90;;
27618;SDS011;15039;50.830;4.730;2023-06-01T01:37:03;10.18;;;5.45;;
27618;SDS011;15039;50.830;4.730;2023-06-01T01:39:29;11.40;;;5.07;;
27618;SDS011;15039;50.830;4.730;2023-06-01T01:41:55;8.70;;;5.78;;
27618;SDS011;15039;50.830;4.730;2023-06-01T01:44:20;7.93;;;5.40;;
27618;SDS011;15039;50.830;4.730;2023-06-01T01:46:56;6.85;;;4.85;;
27618;SDS011;15039;50.830;4.730;2023-06-01T01:49:44;7.90;;;5.60;;
27618;SDS011;15039;50.830;4.730;2023-06-01T01:54:45;8.75;;;4.97;;
27618;SDS011;15039;50.830;4.730;2023-06-01T01:57:12;6.90;;;5.40;;
27618;SDS011;15039;50.830;4.730;2023-06-01T02:02:07;8.65;;;5.63;;
27618;SDS011;15039;50.830;4.730;2023-06-01T02:04:37;10.43;;;6.30;;
27618;SDS011;15039;50.830;4.730;2023-06-01T02:07:05;7.65;;;6.00;;
27618;SDS011;15039;50.830;4.730;2023-06-01T02:09:31;9.40;;;5.18;;
27618;SDS011;15039;50.830;4.730;2023-06-01T02:11:56;9.18;;;5.88;;
27618;SDS011;15039;50.830;4.730;2023-06-01T02:14:22;9.63;;;5.95;;
27618;SDS011;15039;50.830;4.730;2023-06-01T02:16:47;9.55;;;5.40;;
27618;SDS011;15039;50.830;4.730;2023-06-01T02:19:13;8.50;;;6.30;;
27618;SDS011;15039;50.830;4.730;2023-06-01T02:21:40;8.95;;;5.57;;
27618;SDS011;15039;50.830;4.730;2023-06-01T02:24:07;6.97;;;5.80;;
27618;SDS011;15039;50.830;4.730;2023-06-01T02:26:34;7.90;;;5.95;;
27618;SDS011;15039;50.830;4.730;2023-06-01T02:29:00;7.68;;;6.03;;
27618;SDS011;15039;50.830;4.730;2023-06-01T02:31:30;8.57;;;6.07;;
27618;SDS011;15039;50.830;4.730;2023-06-01T02:33:57;8.25;;;5.00;;
27618;SDS011;15039;50.830;4.730;2023-06-01T02:36:23;8.05;;;5.90;;
27618;SDS011;15039;50.830;4.730;2023-06-01T02:38:50;8.73;;;6.25;;
27618;SDS011;15039;50.830;4.730;2023-06-01T02:41:16;6.57;;;5.72;;
27618;SDS011;15039;50.830;4.730;2023-06-01T02:43:41;11.20;;;6.57;;
27618;SDS011;15039;50.830;4.730;2023-06-01T02:46:07;9.23;;;6.90;;
27618;SDS011;15039;50.830;4.730;2023-06-01T02:48:32;11.05;;;6.22;;
27618;SDS011;15039;50.830;4.730;2023-06-01T02:50:58;9.40;;;5.63;;
27618;SDS011;15039;50.830;4.730;2023-06-01T02:53:24;7.72;;;5.97;;
27618;SDS011;15039;50.830;4.730;2023-06-01T02:55:53;9.27;;;6.15;;
27618;SDS011;15039;50.830;4.730;2023-06-01T02:58:19;11.35;;;6.47;;
27618;SDS011;15039;50.830;4.730;2023-06-01T03:00:45;10.80;;;6.45;;
27618;SDS011;15039;50.830;4.730;2023-06-01T03:03:12;10.63;;;6.30;;
27618;SDS011;15039;50.830;4.730;2023-06-01T03:05:39;10.73;;;6.63;;
27618;SDS011;15039;50.830;4.730;2023-06-01T03:08:05;9.57;;;6.68;;
27618;SDS011;15039;50.830;4.730;2023-06-01T03:10:33;10.30;;;7.13;;
27618;SDS011;15039;50.830;4.730;2023-06-01T03:12:59;9.68;;;6.90;;
27618;SDS011;15039;50.830;4.730;2023-06-01T03:15:25;11.00;;;7.90;;
27618;SDS011;15039;50.830;4.730;2023-06-01T03:17:52;10.55;;;7.35;;
27618;SDS011;15039;50.830;4.730;2023-06-01T03:20:18;9.55;;;7.90;;
27618;SDS011;15039;50.830;4.730;2023-06-01T03:22:44;11.43;;;7.53;;
27618;SDS011;15039;50.830;4.730;2023-06-01T03:25:11;11.38;;;8.02;;
27618;SDS011;15039;50.830;4.730;2023-06-01T03:27:38;12.23;;;8.25;;
27618;SDS011;15039;50.830;4.730;2023-06-01T03:30:04;12.27;;;7.55;;
27618;SDS011;15039;50.830;4.730;2023-06-01T03:32:35;10.30;;;7.47;;
27618;SDS011;15039;50.830;4.730;2023-06-01T03:35:04;10.68;;;8.23;;
27618;SDS011;15039;50.830;4.730;2023-06-01T03:37:32;10.45;;;8.27;;
27618;SDS011;15039;50.830;4.730;2023-06-01T03:39:59;12.40;;;8.52;;
27618;SDS011;15039;50.830;4.730;2023-06-01T03:42:25;12.35;;;8.05;;
27618;SDS011;15039;50.830;4.730;2023-06-01T03:44:50;11.32;;;7.85;;
27618;SDS011;15039;50.830;4.730;2023-06-01T03:47:17;10.57;;;7.72;;
27618;SDS011;15039;50.830;4.730;2023-06-01T03:49:43;10.80;;;8.05;;
27618;SDS011;15039;50.830;4.730;2023-06-01T03:52:08;12.30;;;8.45;;
27618;SDS011;15039;50.830;4.730;2023-06-01T03:54:34;14.40;;;8.80;;
27618;SDS011;15039;50.830;4.730;2023-06-01T03:57:00;11.68;;;8.32;;
27618;SDS011;15039;50.830;4.730;2023-06-01T03:59:26;10.77;;;8.45;;
27618;SDS011;15039;50.830;4.730;2023-06-01T04:01:53;13.23;;;8.93;;
27618;SDS011;15039;50.830;4.730;2023-06-01T04:04:19;13.45;;;9.20;;
27618;SDS011;15039;50.830;4.730;2023-06-01T04:06:50;16.17;;;9.50;;
27618;SDS011;15039;50.830;4.730;2023-06-01T04:09:16;10.68;;;9.18;;
27618;SDS011;15039;50.830;4.730;2023-06-01T04:11:43;12.85;;;8.50;;
27618;SDS011;15039;50.830;4.730;2023-06-01T04:14:09;12.32;;;9.52;;
27618;SDS011;15039;50.830;4.730;2023-06-01T04:16:35;12.20;;;9.20;;
27618;SDS011;15039;50.830;4.730;2023-06-01T04:19:01;11.43;;;9.15;;
27618;SDS011;15039;50.830;4.730;2023-06-01T04:21:26;15.15;;;8.93;;
27618;SDS011;15039;50.830;4.730;2023-06-01T04:23:52;15.75;;;9.48;;
27618;SDS011;15039;50.830;4.730;2023-06-01T04:26:18;15.05;;;8.93;;
27618;SDS011;15039;50.830;4.730;2023-06-01T04:28:44;17.02;;;9.75;;
27618;SDS011;15039;50.830;4.730;2023-06-01T04:31:10;14.68;;;9.32;;
27618;SDS011;15039;50.830;4.730;2023-06-01T04:33:42;15.98;;;9.07;;
27618;SDS011;15039;50.830;4.730;2023-06-01T04:36:18;12.40;;;9.10;;
27618;SDS011;15039;50.830;4.730;2023-06-01T04:38:46;13.18;;;9.88;;
27618;SDS011;15039;50.830;4.730;2023-06-01T04:41:19;11.57;;;9.10;;
27618;SDS011;15039;50.830;4.730;2023-06-01T04:43:46;13.95;;;9.82;;
27618;SDS011;15039;50.830;4.730;2023-06-01T04:46:18;12.40;;;9.18;;
27618;SDS011;15039;50.830;4.730;2023-06-01T04:48:45;13.77;;;9.77;;
27618;SDS011;15039;50.830;4.730;2023-06-01T04:51:12;13.23;;;9.07;;
27618;SDS011;15039;50.830;4.730;2023-06-01T04:53:44;12.93;;;9.80;;
27618;SDS011;15039;50.830;4.730;2023-06-01T04:56:20;16.00;;;10.55;;
27618;SDS011;15039;50.830;4.730;2023-06-01T04:58:51;16.52;;;10.20;;
27618;SDS011;15039;50.830;4.730;2023-06-01T05:01:18;16.60;;;11.07;;
27618;SDS011;15039;50.830;4.730;2023-06-01T05:03:45;14.07;;;9.80;;
27618;SDS011;15039;50.830;4.730;2023-06-01T05:06:11;14.35;;;10.77;;
27618;SDS011;15039;50.830;4.730;2023-06-01T05:08:41;17.25;;;11.00;;
27618;SDS011;15039;50.830;4.730;2023-06-01T05:11:07;13.75;;;10.57;;
27618;SDS011;15039;50.830;4.730;2023-06-01T05:13:37;14.60;;;10.52;;
27618;SDS011;15039;50.830;4.730;2023-06-01T05:16:04;12.52;;;9.73;;
27618;SDS011;15039;50.830;4.730;2023-06-01T05:18:31;12.63;;;10.48;;
27618;SDS011;15039;50.830;4.730;2023-06-01T05:20:59;15.55;;;11.57;;
27618;SDS011;15039;50.830;4.730;2023-06-01T05:23:25;15.13;;;11.15;;
27618;SDS011;15039;50.830;4.730;2023-06-01T05:25:52;15.07;;;11.40;;
27618;SDS011;15039;50.830;4.730;2023-06-01T05:28:19;16.75;;;12.05;;
27618;SDS011;15039;50.830;4.730;2023-06-01T05:30:45;16.48;;;12.20;;
27618;SDS011;15039;50.830;4.730;2023-06-01T05:33:11;16.70;;;12.05;;
27618;SDS011;15039;50.830;4.730;2023-06-01T05:35:37;17.98;;;12.40;;
27618;SDS011;15039;50.830;4.730;2023-06-01T05:38:03;18.55;;;13.45;;
27618;SDS011;15039;50.830;4.730;2023-06-01T05:40:28;17.98;;;13.52;;
27618;SDS011;15039;50.830;4.730;2023-06-01T05:42:54;20.08;;;13.13;;
27618;SDS011;15039;50.830;4.730;2023-06-01T05:45:20;26.38;;;14.80;;
27618;SDS011;15039;50.830;4.730;2023-06-01T05:47:47;20.17;;;14.43;;
27618;SDS011;15039;50.830;4.730;2023-06-01T05:50:13;21.33;;;14.77;;
27618;SDS011;15039;50.830;4.730;2023-06-01T05:52:39;22.38;;;15.90;;
27618;SDS011;15039;50.830;4.730;2023-06-01T05:55:07;22.60;;;15.48;;
27618;SDS011;15039;50.830;4.730;2023-06-01T05:57:33;21.02;;;15.18;;
27618;SDS011;15039;50.830;4.730;2023-06-01T05:59:58;21.60;;;14.98;;
27618;SDS011;15039;50.830;4.730;2023-06-01T06:02:24;19.20;;;15.32;;
27618;SDS011;15039;50.830;4.730;2023-06-01T06:04:50;22.27;;;15.95;;
27618;SDS011;15039;50.830;4.730;2023-06-01T06:07:15;19.42;;;14.43;;
27618;SDS011;15039;50.830;4.730;2023-06-01T06:09:41;21.48;;;15.73;;
27618;SDS011;15039;50.830;4.730;2023-06-01T06:12:06;22.75;;;15.07;;
27618;SDS011;15039;50.830;4.730;2023-06-01T06:14:32;25.50;;;15.88;;
27618;SDS011;15039;50.830;4.730;2023-06-01T06:16:58;25.33;;;17.48;;
27618;SDS011;15039;50.830;4.730;2023-06-01T06:19:25;23.23;;;16.63;;
27618;SDS011;15039;50.830;4.730;2023-06-01T06:21:50;23.55;;;16.45;;
27618;SDS011;15039;50.830;4.730;2023-06-01T06:24:16;22.95;;;16.48;;
27618;SDS011;15039;50.830;4.730;2023-06-01T06:26:42;26.20;;;16.25;;
27618;SDS011;15039;50.830;4.730;2023-06-01T06:29:07;27.48;;;17.67;;
27618;SDS011;15039;50.830;4.730;2023-06-01T06:31:33;19.92;;;15.73;;
27618;SDS011;15039;50.830;4.730;2023-06-01T06:33:59;22.15;;;16.45;;
27618;SDS011;15039;50.830;4.730;2023-06-01T06:36:25;25.40;;;15.50;;
27618;SDS011;15039;50.830;4.730;2023-06-01T06:38:50;21.98;;;15.60;;
27618;SDS011;15039;50.830;4.730;2023-06-01T06:41:16;22.40;;;16.70;;
27618;SDS011;15039;50.830;4.730;2023-06-01T06:43:46;19.08;;;15.15;;
27618;SDS011;15039;50.830;4.730;2023-06-01T06:46:11;19.33;;;15.10;;
27618;SDS011;15039;50.830;4.730;2023-06-01T06:48:37;23.98;;;14.63;;
27618;SDS011;15039;50.830;4.730;2023-06-01T06:51:02;19.00;;;14.52;;
27618;SDS011;15039;50.830;4.730;2023-06-01T06:53:28;17.50;;;13.43;;
27618;SDS011;15039;50.830;4.730;2023-06-01T06:55:54;17.38;;;12.27;;
27618;SDS011;15039;50.830;4.730;2023-06-01T06:58:20;18.63;;;13.63;;
27618;SDS011;15039;50.830;4.730;2023-06-01T07:00:45;17.35;;;13.13;;
27618;SDS011;15039;50.830;4.730;2023-06-01T07:03:11;21.02;;;13.25;;
27618;SDS011;15039;50.830;4.730;2023-06-01T07:05:36;16.75;;;12.77;;
27618;SDS011;15039;50.830;4.730;2023-06-01T07:08:02;14.95;;;12.20;;
27618;SDS011;15039;50.830;4.730;2023-06-01T07:10:28;16.65;;;11.90;;
27618;SDS011;15039;50.830;4.730;2023-06-01T07:12:54;17.15;;;12.95;;
27618;SDS011;15039;50.830;4.730;2023-06-01T07:15:20;16.27;;;12.63;;
27618;SDS011;15039;50.830;4.730;2023-06-01T07:17:46;18.25;;;12.20;;
27618;SDS011;15039;50.830;4.730;2023-06-01T07:20:12;13.80;;;11.90;;
27618;SDS011;15039;50.830;4.730;2023-06-01T07:22:38;16.27;;;11.77;;
27618;SDS011;15039;50.830;4.730;2023-06-01T07:25:04;13.85;;;11.00;;
27618;SDS011;15039;50.830;4.730;2023-06-01T07:27:30;14.70;;;11.50;;
27618;SDS011;15039;50.830;4.730;2023-06-01T07:29:57;15.57;;;11.57;;
27618;SDS011;15039;50.830;4.730;2023-06-01T07:32:23;14.05;;;11.55;;
27618;SDS011;15039;50.830;4.730;2023-06-01T07:34:50;13.90;;;10.82;;
27618;SDS011;15039;50.830;4.730;2023-06-01T07:37:16;15.50;;;11.70;;
27618;SDS011;15039;50.830;4.730;2023-06-01T07:39:46;14.95;;;10.68;;
27618;SDS011;15039;50.830;4.730;2023-06-01T07:42:13;13.82;;;11.52;;
27618;SDS011;15039;50.830;4.730;2023-06-01T07:44:39;15.68;;;11.30;;
27618;SDS011;15039;50.830;4.730;2023-06-01T07:47:05;12.82;;;11.10;;
27618;SDS011;15039;50.830;4.730;2023-06-01T07:49:31;12.30;;;10.90;;
27618;SDS011;15039;50.830;4.730;2023-06-01T07:51:56;11.50;;;9.80;;
27618;SDS011;15039;50.830;4.730;2023-06-01T07:54:23;12.15;;;10.18;;
27618;SDS011;15039;50.830;4.730;2023-06-01T07:56:49;13.30;;;10.55;;
27618;SDS011;15039;50.830;4.730;2023-06-01T07:59:15;16.33;;;10.35;;
27618;SDS011;15039;50.830;4.730;2023-06-01T08:01:41;13.15;;;9.93;;
27618;SDS011;15039;50.830;4.730;2023-06-01T08:04:07;11.57;;;8.68;;
27618;SDS011;15039;50.830;4.730;2023-06-01T08:06:33;15.40;;;9.38;;
27618;SDS011;15039;50.830;4.730;2023-06-01T08:09:01;11.02;;;8.70;;
27618;SDS011;15039;50.830;4.730;2023-06-01T08:11:27;10.70;;;8.63;;
27618;SDS011;15039;50.830;4.730;2023-06-01T08:13:53;15.25;;;9.45;;
27618;SDS011;15039;50.830;4.730;2023-06-01T08:16:19;14.20;;;8.82;;
27618;SDS011;15039;50.830;4.730;2023-06-01T08:18:45;10.85;;;8.90;;
27618;SDS011;15039;50.830;4.730;2023-06-01T08:21:11;13.30;;;9.05;;
27618;SDS011;15039;50.830;4.730;2023-06-01T08:23:37;14.68;;;9.07;;
27618;SDS011;15039;50.830;4.730;2023-06-01T08:26:03;13.95;;;9.23;;
27618;SDS011;15039;50.830;4.730;2023-06-01T08:28:29;13.68;;;9.10;;
27618;SDS011;15039;50.830;4.730;2023-06-01T08:30:57;15.02;;;9.27;;
27618;SDS011;15039;50.830;4.730;2023-06-01T08:33:22;11.43;;;8.70;;
27618;SDS011;15039;50.830;4.730;2023-06-01T08:35:48;14.25;;;8.32;;
27618;SDS011;15039;50.830;4.730;2023-06-01T08:38:14;10.98;;;8.80;;
27618;SDS011;15039;50.830;4.730;2023-06-01T08:40:39;12.50;;;8.70;;
27618;SDS011;15039;50.830;4.730;2023-06-01T08:45:34;10.23;;;7.60;;
27618;SDS011;15039;50.830;4.730;2023-06-01T08:48:01;12.43;;;8.05;;
27618;SDS011;15039;50.830;4.730;2023-06-01T08:50:33;10.13;;;8.05;;
27618;SDS011;15039;50.830;4.730;2023-06-01T08:52:59;10.05;;;7.90;;
27618;SDS011;15039;50.830;4.730;2023-06-01T08:55:26;10.25;;;7.68;;
27618;SDS011;15039;50.830;4.730;2023-06-01T08:57:53;13.57;;;8.07;;
27618;SDS011;15039;50.830;4.730;2023-06-01T09:00:19;12.02;;;8.02;;
27618;SDS011;15039;50.830;4.730;2023-06-01T09:02:46;13.20;;;8.30;;
27618;SDS011;15039;50.830;4.730;2023-06-01T09:05:11;13.23;;;7.82;;
27618;SDS011;15039;50.830;4.730;2023-06-01T09:07:38;10.65;;;7.97;;
27618;SDS011;15039;50.830;4.730;2023-06-01T09:10:04;9.10;;;7.75;;
27618;SDS011;15039;50.830;4.730;2023-06-01T09:12:30;9.63;;;7.28;;
27618;SDS011;15039;50.830;4.730;2023-06-01T09:15:09;10.18;;;7.18;;
27618;SDS011;15039;50.830;4.730;2023-06-01T09:17:40;10.02;;;7.63;;
27618;SDS011;15039;50.830;4.730;2023-06-01T09:20:11;8.95;;;7.63;;
27618;SDS011;15039;50.830;4.730;2023-06-01T09:22:47;11.60;;;7.60;;
27618;SDS011;15039;50.830;4.730;2023-06-01T09:25:13;9.82;;;7.63;;
27618;SDS011;15039;50.830;4.730;2023-06-01T09:30:11;11.10;;;7.47;;
27618;SDS011;15039;50.830;4.730;2023-06-01T09:32:38;9.85;;;7.13;;
27618;SDS011;15039;50.830;4.730;2023-06-01T09:35:04;10.48;;;7.22;;
27618;SDS011;15039;50.830;4.730;2023-06-01T09:37:32;10.65;;;7.15;;
27618;SDS011;15039;50.830;4.730;2023-06-01T09:40:05;11.40;;;7.47;;
27618;SDS011;15039;50.830;4.730;2023-06-01T09:42:42;7.47;;;6.68;;
27618;SDS011;15039;50.830;4.730;2023-06-01T09:47:43;10.88;;;7.28;;
27618;SDS011;15039;50.830;4.730;2023-06-01T09:50:10;8.52;;;7.15;;
27618;SDS011;15039;50.830;4.730;2023-06-01T09:52:36;11.48;;;7.20;;
27618;SDS011;15039;50.830;4.730;2023-06-01T09:55:06;10.07;;;6.75;;
27618;SDS011;15039;50.830;4.730;2023-06-01T09:57:33;9.65;;;7.18;;
27618;SDS011;15039;50.830;4.730;2023-06-01T10:00:00;8.82;;;6.45;;
27618;SDS011;15039;50.830;4.730;2023-06-01T10:02:30;7.35;;;5.70;;
27618;SDS011;15039;50.830;4.730;2023-06-01T10:04:58;9.07;;;6.35;;
27618;SDS011;15039;50.830;4.730;2023-06-01T10:07:28;9.05;;;6.30;;
27618;SDS011;15039;50.830;4.730;2023-06-01T10:09:59;11.00;;;6.35;;
27618;SDS011;15039;50.830;4.730;2023-06-01T10:12:27;10.52;;;6.38;;
27618;SDS011;15039;50.830;4.730;2023-06-01T10:14:53;11.05;;;6.70;;
27618;SDS011;15039;50.830;4.730;2023-06-01T10:17:20;11.00;;;6.90;;
27618;SDS011;15039;50.830;4.730;2023-06-01T10:19:46;8.18;;;6.10;;
27618;SDS011;15039;50.830;4.730;2023-06-01T10:22:13;9.52;;;6.22;;
27618;SDS011;15039;50.830;4.730;2023-06-01T10:24:39;10.82;;;7.18;;
27618;SDS011;15039;50.830;4.730;2023-06-01T10:29:32;9.38;;;6.20;;
27618;SDS011;15039;50.830;4.730;2023-06-01T10:31:59;9.02;;;6.93;;
27618;SDS011;15039;50.830;4.730;2023-06-01T10:34:38;9.52;;;6.57;;
27618;SDS011;15039;50.830;4.730;2023-06-01T10:37:10;8.02;;;6.22;;
27618;SDS011;15039;50.830;4.730;2023-06-01T10:39:37;9.07;;;6.57;;
27618;SDS011;15039;50.830;4.730;2023-06-01T10:54:56;11.98;;;6.03;;
27618;SDS011;15039;50.830;4.730;2023-06-01T10:57:41;12.05;;;6.93;;
27618;SDS011;15039;50.830;4.730;2023-06-01T11:02:58;8.57;;;6.30;;
27618;SDS011;15039;50.830;4.730;2023-06-01T11:05:38;8.75;;;6.57;;
27618;SDS011;15039;50.830;4.730;2023-06-01T11:10:55;9.35;;;6.18;;
27618;SDS011;15039;50.830;4.730;2023-06-01T11:13:27;10.63;;;7.45;;
27618;SDS011;15039;50.830;4.730;2023-06-01T11:18:47;10.52;;;6.28;;
27618;SDS011;15039;50.830;4.730;2023-06-01T11:26:41;12.63;;;6.75;;
27618;SDS011;15039;50.830;4.730;2023-06-01T11:29:10;10.88;;;6.28;;
27618;SDS011;15039;50.830;4.730;2023-06-01T11:34:07;12.07;;;7.28;;
27618;SDS011;15039;50.830;4.730;2023-06-01T11:36:45;10.38;;;6.32;;
27618;SDS011;15039;50.830;4.730;2023-06-01T11:39:16;7.55;;;6.28;;
27618;SDS011;15039;50.830;4.730;2023-06-01T11:41:43;10.23;;;6.80;;
27618;SDS011;15039;50.830;4.730;2023-06-01T11:44:09;8.77;;;6.63;;
27618;SDS011;15039;50.830;4.730;2023-06-01T11:46:35;10.18;;;6.55;;
27618;SDS011;15039;50.830;4.730;2023-06-01T11:49:02;10.00;;;6.95;;
27618;SDS011;15039;50.830;4.730;2023-06-01T11:51:37;9.75;;;6.85;;
27618;SDS011;15039;50.830;4.730;2023-06-01T11:54:04;9.98;;;6.45;;
27618;SDS011;15039;50.830;4.730;2023-06-01T11:56:31;7.68;;;6.03;;
27618;SDS011;15039;50.830;4.730;2023-06-01T11:58:59;8.10;;;6.07;;
27618;SDS011;15039;50.830;4.730;2023-06-01T12:01:26;10.52;;;6.82;;
27618;SDS011;15039;50.830;4.730;2023-06-01T12:03:53;11.98;;;7.30;;
27618;SDS011;15039;50.830;4.730;2023-06-01T12:06:22;12.38;;;6.75;;
27618;SDS011;15039;50.830;4.730;2023-06-01T12:08:55;10.98;;;7.07;;
27618;SDS011;15039;50.830;4.730;2023-06-01T12:13:51;9.65;;;6.70;;
27618;SDS011;15039;50.830;4.730;2023-06-01T12:16:18;10.10;;;6.78;;
27618;SDS011;15039;50.830;4.730;2023-06-01T12:18:43;15.15;;;6.93;;
27618;SDS011;15039;50.830;4.730;2023-06-01T12:21:13;10.70;;;6.80;;
27618;SDS011;15039;50.830;4.730;2023-06-01T12:23:39;11.48;;;7.18;;
27618;SDS011;15039;50.830;4.730;2023-06-01T12:26:06;13.27;;;7.50;;
27618;SDS011;15039;50.830;4.730;2023-06-01T12:28:52;12.05;;;7.55;;
27618;SDS011;15039;50.830;4.730;2023-06-01T12:31:19;11.85;;;7.28;;
27618;SDS011;15039;50.830;4.730;2023-06-01T12:33:46;13.13;;;7.07;;
27618;SDS011;15039;50.830;4.730;2023-06-01T12:36:32;10.85;;;6.97;;
27618;SDS011;15039;50.830;4.730;2023-06-01T12:38:59;11.23;;;8.10;;
27618;SDS011;15039;50.830;4.730;2023-06-01T12:41:27;12.55;;;8.02;;
27618;SDS011;15039;50.830;4.730;2023-06-01T12:43:54;10.98;;;7.38;;
27618;SDS011;15039;50.830;4.730;2023-06-01T12:46:27;14.65;;;8.98;;
27618;SDS011;15039;50.830;4.730;2023-06-01T12:49:09;11.52;;;7.25;;
27618;SDS011;15039;50.830;4.730;2023-06-01T12:51:41;14.65;;;7.97;;
27618;SDS011;15039;50.830;4.730;2023-06-01T12:54:07;9.15;;;6.93;;
27618;SDS011;15039;50.830;4.730;2023-06-01T12:56:32;14.90;;;7.25;;
27618;SDS011;15039;50.830;4.730;2023-06-01T12:58:58;13.65;;;7.35;;
27618;SDS011;15039;50.830;4.730;2023-06-01T13:01:23;9.13;;;6.90;;
27618;SDS011;15039;50.830;4.730;2023-06-01T13:03:49;9.80;;;7.43;;
27618;SDS011;15039;50.830;4.730;2023-06-01T13:06:17;11.63;;;6.70;;
27618;SDS011;15039;50.830;4.730;2023-06-01T13:08:42;10.25;;;5.90;;
27618;SDS011;15039;50.830;4.730;2023-06-01T13:11:08;13.23;;;6.22;;
27618;SDS011;15039;50.830;4.730;2023-06-01T13:13:34;8.95;;;6.43;;
27618;SDS011;15039;50.830;4.730;2023-06-01T13:16:00;13.48;;;6.68;;
27618;SDS011;15039;50.830;4.730;2023-06-01T13:18:27;12.20;;;6.45;;
27618;SDS011;15039;50.830;4.730;2023-06-01T13:20:53;10.18;;;6.35;;
27618;SDS011;15039;50.830;4.730;2023-06-01T13:23:19;11.55;;;5.90;;
27618;SDS011;15039;50.830;4.730;2023-06-01T13:25:44;9.48;;;6.93;;
27618;SDS011;15039;50.830;4.730;2023-06-01T13:28:10;14.85;;;6.05;;
27618;SDS011;15039;50.830;4.730;2023-06-01T13:30:36;11.60;;;5.97;;
27618;SDS011;15039;50.830;4.730;2023-06-01T13:33:04;13.02;;;6.15;;
27618;SDS011;15039;50.830;4.730;2023-06-01T13:35:31;11.38;;;5.93;;
27618;SDS011;15039;50.830;4.730;2023-06-01T13:37:57;10.93;;;6.20;;
27618;SDS011;15039;50.830;4.730;2023-06-01T13:40:23;10.75;;;5.90;;
27618;SDS011;15039;50.830;4.730;2023-06-01T13:42:52;10.50;;;6.55;;
27618;SDS011;15039;50.830;4.730;2023-06-01T13:47:44;10.18;;;5.65;;
27618;SDS011;15039;50.830;4.730;2023-06-01T13:50:11;12.50;;;5.32;;
27618;SDS011;15039;50.830;4.730;2023-06-01T13:52:40;8.93;;;5.68;;
27618;SDS011;15039;50.830;4.730;2023-06-01T13:55:06;10.90;;;5.75;;
27618;SDS011;15039;50.830;4.730;2023-06-01T13:57:33;22.73;;;7.03;;
27618;SDS011;15039;50.830;4.730;2023-06-01T14:00:03;7.95;;;4.97;;
27618;SDS011;15039;50.830;4.730;2023-06-01T14:02:30;9.07;;;5.25;;
27618;SDS011;15039;50.830;4.730;2023-06-01T14:04:55;10.15;;;5.18;;
27618;SDS011;15039;50.830;4.730;2023-06-01T14:07:21;7.25;;;5.05;;
27618;SDS011;15039;50.830;4.730;2023-06-01T14:09:47;10.25;;;5.43;;
27618;SDS011;15039;50.830;4.730;2023-06-01T14:12:12;10.25;;;6.30;;
27618;SDS011;15039;50.830;4.730;2023-06-01T14:14:38;9.45;;;5.30;;
27618;SDS011;15039;50.830;4.730;2023-06-01T14:17:03;9.88;;;4.90;;
27618;SDS011;15039;50.830;4.730;2023-06-01T14:19:29;15.05;;;6.03;;
27618;SDS011;15039;50.830;4.730;2023-06-01T14:21:55;12.10;;;5.07;;
27618;SDS011;15039;50.830;4.730;2023-06-01T14:24:21;8.40;;;5.68;;
27618;SDS011;15039;50.830;4.730;2023-06-01T14:26:46;10.25;;;5.57;;
27618;SDS011;15039;50.830;4.730;2023-06-01T14:29:12;9.50;;;4.95;;
27618;SDS011;15039;50.830;4.730;2023-06-01T14:31:37;7.88;;;5.78;;
27618;SDS011;15039;50.830;4.730;2023-06-01T14:34:03;8.40;;;5.13;;
27618;SDS011;15039;50.830;4.730;2023-06-01T14:36:29;8.20;;;5.60;;
27618;SDS011;15039;50.830;4.730;2023-06-01T14:38:55;8.52;;;4.78;;
27618;SDS011;15039;50.830;4.730;2023-06-01T14:41:20;7.90;;;5.15;;
27618;SDS011;15039;50.830;4.730;2023-06-01T14:43:46;10.18;;;4.95;;
27618;SDS011;15039;50.830;4.730;2023-06-01T14:46:12;11.43;;;4.75;;
27618;SDS011;15039;50.830;4.730;2023-06-01T14:48:37;12.38;;;5.93;;
27618;SDS011;15039;50.830;4.730;2023-06-01T14:51:03;8.73;;;5.63;;
27618;SDS011;15039;50.830;4.730;2023-06-01T14:53:28;6.60;;;4.70;;
27618;SDS011;15039;50.830;4.730;2023-06-01T14:55:54;7.65;;;4.82;;
27618;SDS011;15039;50.830;4.730;2023-06-01T14:58:20;8.05;;;4.97;;
27618;SDS011;15039;50.830;4.730;2023-06-01T15:00:45;9.70;;;5.18;;
27618;SDS011;15039;50.830;4.730;2023-06-01T15:03:12;9.57;;;4.97;;
27618;SDS011;15039;50.830;4.730;2023-06-01T15:05:38;8.23;;;4.35;;
27618;SDS011;15039;50.830;4.730;2023-06-01T15:08:07;9.77;;;4.88;;
27618;SDS011;15039;50.830;4.730;2023-06-01T15:10:33;12.63;;;5.15;;
27618;SDS011;15039;50.830;4.730;2023-06-01T15:12:58;5.55;;;4.38;;
27618;SDS011;15039;50.830;4.730;2023-06-01T15:15:24;8.05;;;4.30;;
27618;SDS011;15039;50.830;4.730;2023-06-01T15:17:49;10.02;;;4.32;;
27618;SDS011;15039;50.830;4.730;2023-06-01T15:20:15;7.32;;;4.55;;
27618;SDS011;15039;50.830;4.730;2023-06-01T15:22:41;9.15;;;4.70;;
27618;SDS011;15039;50.830;4.730;2023-06-01T15:25:07;7.22;;;4.28;;
27618;SDS011;15039;50.830;4.730;2023-06-01T15:27:33;6.85;;;4.28;;
27618;SDS011;15039;50.830;4.730;2023-06-01T15:29:58;6.03;;;4.32;;
27618;SDS011;15039;50.830;4.730;2023-06-01T15:32:24;9.07;;;3.85;;
27618;SDS011;15039;50.830;4.730;2023-06-01T15:34:50;9.98;;;4.43;;